Silver Bergen — LAHO6 — position and weather

sailwx.info

Track history (hours):
 
Tides and Currents Weather Stations Pressure Air Temp Water Temp Dewpoint Dewpoint Depression Visibility Wind Speed Wind Dir Waves Ship Positions

Silver Bergen

Last reported at 2014-Jul-21 06:06 UTC. Time now 2014-Jul-23 07:22 UTC.
Position N 59°00' E 021°44'.

Length 97 m; draft 6 m.

Type: Cargo ship. MMSI: 257951000.

Date/timePositionNaut miles runAvg speedWind from/ knotsBaromVisibWave heightAir tempDewpointWater temp
2014-Jul-21 06:06N 59°00' E 021°44'1114.4
2014-Jul-21 05:20N 58°52' E 021°30'10214.7
2014-Jul-20 22:24N 57°32' E 019°30'4114.5
2014-Jul-20 19:33N 56°59' E 018°45'1414.4
2014-Jul-20 18:33N 56°47' E 018°29'1514.3
2014-Jul-20 17:30N 56°38' E 018°07'5714.5
2014-Jul-20 13:32N 56°03' E 016°44'1913.9
2014-Jul-20 12:12N 55°55' E 016°15'913.9
2014-Jul-20 11:33N 55°50' E 016°01'1414.0
2014-Jul-20 10:33N 55°44' E 015°39'1413.9
2014-Jul-20 09:33N 55°37' E 015°18'1413.9
2014-Jul-20 08:33N 55°30' E 014°56'1413.6
2014-Jul-20 07:33N 55°23' E 014°36'1413.8
2014-Jul-20 06:33N 55°12' E 014°20'1313.1
2014-Jul-20 05:33N 55°10' E 013°58'1413.6
2014-Jul-20 04:34N 55°10' E 013°34'1413.6
2014-Jul-20 03:33N 55°11' E 013°10'1212.3
2014-Jul-20 02:33N 55°15' E 012°50'1110.6
2014-Jul-20 01:34N 55°24' E 012°40'1312.9
2014-Jul-20 00:33N 55°37' E 012°42'1313.0
2014-Jul-19 23:33N 55°50' E 012°41'1313.4
2014-Jul-19 22:33N 56°03' E 012°39'1312.5
2014-Jul-19 21:33N 56°12' E 012°22'1413.9
2014-Jul-19 20:33N 56°23' E 012°09'1413.9
2014-Jul-19 19:33N 56°36' E 011°56'1414.2
2014-Jul-19 18:33N 56°49' E 011°49'1414.3
2014-Jul-19 17:33N 57°03' E 011°40'1413.8
2014-Jul-19 16:34N 57°15' E 011°31'1414.3
2014-Jul-19 15:34N 57°29' E 011°20'1514.5
2014-Jul-19 14:34N 57°38' E 011°00'1413.9
2014-Jul-19 13:34N 57°47' E 010°40'1414.4
2014-Jul-19 12:34N 57°46' E 010°13'1414.2
2014-Jul-19 11:33N 57°45' E 009°46'3414.7
2014-Jul-19 09:12N 57°44' E 008°41'914.2
2014-Jul-19 08:32N 57°43' E 008°24'7414.1
2014-Jul-19 03:15N 58°05' E 006°10'  
2014-Jul-15 22:33N 64°10' W 022°28'1312.9
2014-Jul-15 21:33N 64°11' W 021°59'5 4.4
2014-Jul-15 20:30N 64°08' W 021°50'0 0.0
2014-Jul-15 19:33N 64°08' W 021°50'0 0.0
2014-Jul-15 18:33N 64°08' W 021°50'0 0.0
2014-Jul-15 17:33N 64°08' W 021°50'0 0.0
2014-Jul-15 16:33N 64°08' W 021°50'0 0.0
2014-Jul-15 15:33N 64°08' W 021°50'0 0.0
2014-Jul-15 14:33N 64°08' W 021°50'0 0.0
2014-Jul-15 13:33N 64°08' W 021°50'0 0.0
2014-Jul-15 12:33N 64°08' W 021°50'0 0.0
2014-Jul-15 11:33N 64°08' W 021°50'0 0.0
2014-Jul-15 10:33N 64°08' W 021°50'0 0.0
2014-Jul-15 09:33N 64°08' W 021°50'0 0.0
2014-Jul-15 08:33N 64°08' W 021°50'0 0.1
2014-Jul-15 07:33N 64°08' W 021°50'1 1.0
2014-Jul-15 06:32N 64°09' W 021°51'0 0.0
2014-Jul-15 05:32N 64°09' W 021°51'0 0.0
2014-Jul-15 04:32N 64°09' W 021°51'0 0.0
2014-Jul-15 03:29N 64°09' W 021°51'0 0.0
2014-Jul-15 02:32N 64°09' W 021°51'0 0.0
2014-Jul-15 01:29N 64°09' W 021°51'0 0.0
2014-Jul-15 00:32N 64°09' W 021°51'0 0.0
2014-Jul-14 23:32N 64°09' W 021°51'0 0.0
2014-Jul-14 22:32N 64°09' W 021°51'0 0.0
2014-Jul-14 21:32N 64°09' W 021°51'0 0.0
2014-Jul-14 20:32N 64°09' W 021°51'0 0.0
2014-Jul-14 19:32N 64°09' W 021°51'0 0.0
2014-Jul-14 18:32N 64°09' W 021°51'0 0.0
2014-Jul-14 17:32N 64°09' W 021°51'0 0.0
2014-Jul-14 16:32N 64°09' W 021°51'0 0.0
2014-Jul-14 15:32N 64°09' W 021°51'0 0.0
2014-Jul-14 14:32N 64°09' W 021°51'  
Track history (hours):
 
Tides and Currents Weather Stations Pressure Air Temp Water Temp Dewpoint Dewpoint Depression Visibility Wind Speed Wind Dir Waves Ship Positions

Silver Bergen

Last reported at 2014-Jul-21 06:06 UTC. Time now 2014-Jul-23 07:22 UTC.
Position N 59°00' E 021°44'.

Length 97 m; draft 6 m.

Type: Cargo ship. MMSI: 257951000.

Date/timePositionNaut miles runAvg speedWind from/ knotsBaromVisibWave heightAir tempDewpointWater temp
2014-Jul-21 06:06N 59°00' E 021°44'1114.4
2014-Jul-21 05:20N 58°52' E 021°30'10214.7
2014-Jul-20 22:24N 57°32' E 019°30'4114.5
2014-Jul-20 19:33N 56°59' E 018°45'1414.4
2014-Jul-20 18:33N 56°47' E 018°29'1514.3
2014-Jul-20 17:30N 56°38' E 018°07'5714.5
2014-Jul-20 13:32N 56°03' E 016°44'1913.9
2014-Jul-20 12:12N 55°55' E 016°15'913.9
2014-Jul-20 11:33N 55°50' E 016°01'1414.0
2014-Jul-20 10:33N 55°44' E 015°39'1413.9
2014-Jul-20 09:33N 55°37' E 015°18'1413.9
2014-Jul-20 08:33N 55°30' E 014°56'1413.6
2014-Jul-20 07:33N 55°23' E 014°36'1413.8
2014-Jul-20 06:33N 55°12' E 014°20'1313.1
2014-Jul-20 05:33N 55°10' E 013°58'1413.6
2014-Jul-20 04:34N 55°10' E 013°34'1413.6
2014-Jul-20 03:33N 55°11' E 013°10'1212.3
2014-Jul-20 02:33N 55°15' E 012°50'1110.6
2014-Jul-20 01:34N 55°24' E 012°40'1312.9
2014-Jul-20 00:33N 55°37' E 012°42'1313.0
2014-Jul-19 23:33N 55°50' E 012°41'1313.4
2014-Jul-19 22:33N 56°03' E 012°39'1312.5
2014-Jul-19 21:33N 56°12' E 012°22'1413.9
2014-Jul-19 20:33N 56°23' E 012°09'1413.9
2014-Jul-19 19:33N 56°36' E 011°56'1414.2
2014-Jul-19 18:33N 56°49' E 011°49'1414.3
2014-Jul-19 17:33N 57°03' E 011°40'1413.8
2014-Jul-19 16:34N 57°15' E 011°31'1414.3
2014-Jul-19 15:34N 57°29' E 011°20'1514.5
2014-Jul-19 14:34N 57°38' E 011°00'1413.9
2014-Jul-19 13:34N 57°47' E 010°40'1414.4
2014-Jul-19 12:34N 57°46' E 010°13'1414.2
2014-Jul-19 11:33N 57°45' E 009°46'3414.7
2014-Jul-19 09:12N 57°44' E 008°41'914.2
2014-Jul-19 08:32N 57°43' E 008°24'7414.1
2014-Jul-19 03:15N 58°05' E 006°10'  
2014-Jul-15 22:33N 64°10' W 022°28'1312.9
2014-Jul-15 21:33N 64°11' W 021°59'5 4.4
2014-Jul-15 20:30N 64°08' W 021°50'0 0.0
2014-Jul-15 19:33N 64°08' W 021°50'0 0.0
2014-Jul-15 18:33N 64°08' W 021°50'0 0.0
2014-Jul-15 17:33N 64°08' W 021°50'0 0.0
2014-Jul-15 16:33N 64°08' W 021°50'0 0.0
2014-Jul-15 15:33N 64°08' W 021°50'0 0.0
2014-Jul-15 14:33N 64°08' W 021°50'0 0.0
2014-Jul-15 13:33N 64°08' W 021°50'0 0.0
2014-Jul-15 12:33N 64°08' W 021°50'0 0.0
2014-Jul-15 11:33N 64°08' W 021°50'0 0.0
2014-Jul-15 10:33N 64°08' W 021°50'0 0.0
2014-Jul-15 09:33N 64°08' W 021°50'0 0.0
2014-Jul-15 08:33N 64°08' W 021°50'0 0.1
2014-Jul-15 07:33N 64°08' W 021°50'1 1.0
2014-Jul-15 06:32N 64°09' W 021°51'0 0.0
2014-Jul-15 05:32N 64°09' W 021°51'0 0.0
2014-Jul-15 04:32N 64°09' W 021°51'0 0.0
2014-Jul-15 03:29N 64°09' W 021°51'0 0.0
2014-Jul-15 02:32N 64°09' W 021°51'0 0.0
2014-Jul-15 01:29N 64°09' W 021°51'0 0.0
2014-Jul-15 00:32N 64°09' W 021°51'0 0.0
2014-Jul-14 23:32N 64°09' W 021°51'0 0.0
2014-Jul-14 22:32N 64°09' W 021°51'0 0.0
2014-Jul-14 21:32N 64°09' W 021°51'0 0.0
2014-Jul-14 20:32N 64°09' W 021°51'0 0.0
2014-Jul-14 19:32N 64°09' W 021°51'0 0.0
2014-Jul-14 18:32N 64°09' W 021°51'0 0.0
2014-Jul-14 17:32N 64°09' W 021°51'0 0.0
2014-Jul-14 16:32N 64°09' W 021°51'0 0.0
2014-Jul-14 15:32N 64°09' W 021°51'0 0.0
2014-Jul-14 14:32N 64°09' W 021°51'  

Dump ship's entire track history